ASA471 MMPR-KSAN
Flight info
| Callsign | ASA471 |
|---|---|
| Flight time | N/A |
| Altitude | 34000 |
| Route | BOBDI1B BOBDI UT4 LMM UT8 PPE UJ3 TIJ |
| Aircraft | B39M/M-SDE1FGHILORVWXY/HB1 |
Departure
| Time | 2026-04-19 21:17 |
|---|---|
| Airport | Puerto Vallarta International Airport (MMPR) |
Arrival
| Time | N/A |
|---|---|
| Airport | San Diego International Airport (KSAN) |
| Time | Latitude | Longitude | Altitude | Speed | Heading |
|---|---|---|---|---|---|
| 2026-04-19 20:41 | 20.67979 | -105.24728 | 31 ft | 0 kts | 47° |
| 2026-04-19 21:02 | 20.67963 | -105.24746 | 31 ft | 4 kts | 47° |
| 2026-04-19 21:02 | 20.67948 | -105.24763 | 31 ft | 4 kts | 40° |
| 2026-04-19 21:02 | 20.67933 | -105.24771 | 31 ft | 4 kts | 323° |
| 2026-04-19 21:03 | 20.67915 | -105.24753 | 31 ft | 3 kts | 317° |
| 2026-04-19 21:03 | 20.67913 | -105.24751 | 31 ft | 0 kts | 317° |
| 2026-04-19 21:07 | 20.67914 | -105.24751 | 59 ft | 0 kts | 317° |
| 2026-04-19 21:08 | 20.67924 | -105.24762 | 31 ft | 5 kts | 316° |
| 2026-04-19 21:08 | 20.67968 | -105.24806 | 31 ft | 12 kts | 318° |
| 2026-04-19 21:08 | 20.68050 | -105.24812 | 31 ft | 14 kts | 41° |
| 2026-04-19 21:08 | 20.68126 | -105.24738 | 31 ft | 16 kts | 25° |
| 2026-04-19 21:09 | 20.68234 | -105.24700 | 31 ft | 17 kts | 17° |
| 2026-04-19 21:09 | 20.68354 | -105.24660 | 31 ft | 19 kts | 18° |
| 2026-04-19 21:09 | 20.68479 | -105.24606 | 31 ft | 20 kts | 39° |
| 2026-04-19 21:09 | 20.68583 | -105.24497 | 31 ft | 22 kts | 47° |
| 2026-04-19 21:10 | 20.68688 | -105.24378 | 31 ft | 17 kts | 47° |
| 2026-04-19 21:10 | 20.68761 | -105.24293 | 31 ft | 14 kts | 46° |
| 2026-04-19 21:10 | 20.68809 | -105.24259 | 31 ft | 5 kts | 13° |
| 2026-04-19 21:10 | 20.68836 | -105.24263 | 31 ft | 4 kts | 339° |
| 2026-04-19 21:11 | 20.68868 | -105.24284 | 31 ft | 5 kts | 318° |
| 2026-04-19 21:11 | 20.68870 | -105.24286 | 31 ft | 0 kts | 317° |
| 2026-04-19 21:15 | 20.68872 | -105.24289 | 31 ft | 1 kts | 316° |
| 2026-04-19 21:15 | 20.68880 | -105.24297 | 31 ft | 4 kts | 315° |
| 2026-04-19 21:15 | 20.68922 | -105.24337 | 31 ft | 8 kts | 314° |
| 2026-04-19 21:15 | 20.68927 | -105.24357 | 31 ft | 1 kts | 248° |
| 2026-04-19 21:16 | 20.68921 | -105.24368 | 31 ft | 5 kts | 235° |
| 2026-04-19 21:16 | 20.68844 | -105.24459 | 32 ft | 43 kts | 227° |
| 2026-04-19 21:16 | 20.68289 | -105.25097 | 30 ft | 130 kts | 227° |
| 2026-04-19 21:16 | 20.67816 | -105.25635 | 60 ft | 161 kts | 227° |
| 2026-04-19 21:17 | 20.67006 | -105.26502 | 650 ft | 170 kts | 224° |
| 2026-04-19 21:17 | 20.65912 | -105.27685 | 1603 ft | 172 kts | 227° |
| 2026-04-19 21:17 | 20.65046 | -105.28658 | 2072 ft | 190 kts | 228° |
| 2026-04-19 21:17 | 20.64411 | -105.29388 | 2345 ft | 206 kts | 232° |
| 2026-04-19 21:18 | 20.63887 | -105.30745 | 3240 ft | 197 kts | 265° |
| 2026-04-19 21:18 | 20.64172 | -105.32204 | 3855 ft | 210 kts | 297° |
| 2026-04-19 21:18 | 20.65215 | -105.33297 | 3935 ft | 216 kts | 334° |
| 2026-04-19 21:18 | 20.66666 | -105.33734 | 4113 ft | 220 kts | 345° |
| 2026-04-19 21:19 | 20.68137 | -105.34114 | 4901 ft | 217 kts | 345° |
| 2026-04-19 21:19 | 20.69646 | -105.34514 | 5494 ft | 230 kts | 344° |
| 2026-04-19 21:19 | 20.71219 | -105.34944 | 6244 ft | 233 kts | 345° |
| 2026-04-19 21:19 | 20.72804 | -105.35381 | 6953 ft | 238 kts | 344° |
| 2026-04-19 21:20 | 20.74393 | -105.35827 | 7689 ft | 240 kts | 343° |
| 2026-04-19 21:20 | 20.76017 | -105.36284 | 8412 ft | 243 kts | 343° |
| 2026-04-19 21:20 | 20.77660 | -105.36747 | 9200 ft | 245 kts | 343° |
| 2026-04-19 21:20 | 20.79316 | -105.37214 | 9934 ft | 248 kts | 342° |
| 2026-04-19 21:21 | 20.80994 | -105.37689 | 10602 ft | 251 kts | 342° |
| 2026-04-19 21:21 | 20.82696 | -105.38171 | 11243 ft | 256 kts | 342° |
| 2026-04-19 21:21 | 20.84426 | -105.38659 | 11901 ft | 259 kts | 342° |
| 2026-04-19 21:21 | 20.86181 | -105.39160 | 12532 ft | 264 kts | 342° |
| 2026-04-19 21:22 | 20.88025 | -105.39547 | 12964 ft | 280 kts | 353° |
| 2026-04-19 21:22 | 20.90036 | -105.39645 | 13314 ft | 297 kts | 356° |
| 2026-04-19 21:22 | 20.92156 | -105.39742 | 13748 ft | 313 kts | 356° |
| 2026-04-19 21:22 | 20.94399 | -105.39857 | 14010 ft | 333 kts | 355° |
| 2026-04-19 21:23 | 20.96776 | -105.39988 | 14258 ft | 352 kts | 355° |
| 2026-04-19 21:23 | 20.99290 | -105.40133 | 14502 ft | 370 kts | 355° |
| 2026-04-19 21:23 | 21.01884 | -105.40421 | 14875 ft | 378 kts | 343° |
| 2026-04-19 21:23 | 21.04283 | -105.41502 | 15550 ft | 374 kts | 324° |
| 2026-04-19 21:24 | 21.06327 | -105.43222 | 16125 ft | 375 kts | 315° |
| 2026-04-19 21:24 | 21.08291 | -105.45066 | 16732 ft | 377 kts | 314° |
| 2026-04-19 21:24 | 21.10241 | -105.46950 | 17371 ft | 378 kts | 314° |
| 2026-04-19 21:24 | 21.12187 | -105.48857 | 17961 ft | 380 kts | 314° |
| 2026-04-19 21:25 | 21.14135 | -105.50786 | 18506 ft | 382 kts | 314° |
| 2026-04-19 21:25 | 21.16087 | -105.52731 | 18981 ft | 385 kts | 313° |
| 2026-04-19 21:25 | 21.18047 | -105.54694 | 19473 ft | 387 kts | 313° |
| 2026-04-19 21:25 | 21.20015 | -105.56674 | 19946 ft | 390 kts | 313° |
| 2026-04-19 21:26 | 21.22001 | -105.58661 | 20441 ft | 392 kts | 312° |
| 2026-04-19 21:26 | 21.23970 | -105.60640 | 20902 ft | 394 kts | 312° |
| 2026-04-19 21:26 | 21.25978 | -105.62656 | 21391 ft | 396 kts | 312° |
| 2026-04-19 21:26 | 21.27993 | -105.64679 | 21857 ft | 399 kts | 312° |
| 2026-04-19 21:27 | 21.30025 | -105.66715 | 22316 ft | 401 kts | 312° |
| 2026-04-19 21:27 | 21.32069 | -105.68766 | 22778 ft | 403 kts | 312° |
| 2026-04-19 21:27 | 21.34121 | -105.70829 | 23232 ft | 405 kts | 312° |
| 2026-04-19 21:27 | 21.36182 | -105.72902 | 23649 ft | 408 kts | 312° |
| 2026-04-19 21:28 | 21.38305 | -105.74943 | 23996 ft | 413 kts | 318° |
| 2026-04-19 21:28 | 21.40678 | -105.76713 | 24399 ft | 416 kts | 320° |
| 2026-04-19 21:28 | 21.43064 | -105.78479 | 24749 ft | 418 kts | 320° |
| 2026-04-19 21:28 | 21.45466 | -105.80262 | 25109 ft | 421 kts | 320° |
| 2026-04-19 21:29 | 21.47877 | -105.82056 | 25467 ft | 423 kts | 320° |
| 2026-04-19 21:29 | 21.50304 | -105.83861 | 25820 ft | 425 kts | 319° |
| 2026-04-19 21:29 | 21.52742 | -105.85676 | 26169 ft | 428 kts | 319° |
| 2026-04-19 21:29 | 21.55192 | -105.87500 | 26514 ft | 430 kts | 319° |
| 2026-04-19 21:30 | 21.57655 | -105.89335 | 26845 ft | 432 kts | 319° |
| 2026-04-19 21:30 | 21.60135 | -105.91183 | 27170 ft | 435 kts | 319° |
| 2026-04-19 21:30 | 21.62623 | -105.93038 | 27502 ft | 437 kts | 319° |
| 2026-04-19 21:30 | 21.65128 | -105.94907 | 27817 ft | 439 kts | 319° |
| 2026-04-19 21:31 | 21.67639 | -105.96780 | 28128 ft | 441 kts | 319° |
| 2026-04-19 21:31 | 21.70170 | -105.98670 | 28431 ft | 444 kts | 318° |
| 2026-04-19 21:31 | 21.72710 | -106.00567 | 28745 ft | 446 kts | 318° |
| 2026-04-19 21:31 | 21.75266 | -106.02477 | 29052 ft | 448 kts | 318° |
| 2026-04-19 21:32 | 21.77829 | -106.04393 | 29339 ft | 450 kts | 318° |
| 2026-04-19 21:32 | 21.80376 | -106.06298 | 29633 ft | 453 kts | 318° |
| 2026-04-19 21:32 | 21.82966 | -106.08236 | 29909 ft | 455 kts | 318° |
| 2026-04-19 21:32 | 21.85572 | -106.10186 | 30160 ft | 457 kts | 317° |
| 2026-04-19 21:33 | 21.88188 | -106.12144 | 30404 ft | 459 kts | 317° |
| 2026-04-19 21:33 | 21.90814 | -106.14112 | 30659 ft | 460 kts | 317° |
| 2026-04-19 21:33 | 21.93446 | -106.16085 | 30912 ft | 462 kts | 317° |
| 2026-04-19 21:33 | 21.96090 | -106.18068 | 31151 ft | 464 kts | 317° |
| 2026-04-19 21:34 | 21.98740 | -106.20056 | 31392 ft | 465 kts | 317° |
| 2026-04-19 21:34 | 22.01401 | -106.22053 | 31633 ft | 467 kts | 317° |
| 2026-04-19 21:34 | 22.04067 | -106.24054 | 31876 ft | 468 kts | 317° |
| 2026-04-19 21:34 | 22.06736 | -106.26059 | 32176 ft | 468 kts | 316° |
| 2026-04-19 21:35 | 22.09404 | -106.28070 | 32509 ft | 467 kts | 317° |
| 2026-04-19 21:35 | 22.12065 | -106.30073 | 32831 ft | 466 kts | 316° |
| 2026-04-19 21:35 | 22.14725 | -106.32075 | 33176 ft | 465 kts | 316° |
| 2026-04-19 21:35 | 22.17378 | -106.34069 | 33506 ft | 464 kts | 316° |
| 2026-04-19 21:36 | 22.20024 | -106.36062 | 33838 ft | 464 kts | 316° |
| 2026-04-19 21:36 | 22.22671 | -106.38059 | 33950 ft | 464 kts | 316° |
| 2026-04-19 21:36 | 22.27928 | -106.42019 | 33936 ft | 460 kts | 316° |
| 2026-04-19 21:37 | 22.33166 | -106.45967 | 33936 ft | 460 kts | 316° |
| 2026-04-19 21:37 | 22.38403 | -106.49933 | 33936 ft | 459 kts | 315° |
| 2026-04-19 21:38 | 22.43640 | -106.53893 | 33935 ft | 459 kts | 315° |
| 2026-04-19 21:38 | 22.48838 | -106.57827 | 33931 ft | 459 kts | 315° |
| 2026-04-19 21:39 | 22.54068 | -106.61790 | 33933 ft | 459 kts | 315° |
| 2026-04-19 21:39 | 22.59297 | -106.65754 | 33942 ft | 459 kts | 315° |
| 2026-04-19 21:40 | 22.67131 | -106.71701 | 33939 ft | 459 kts | 315° |
| 2026-04-19 21:41 | 22.72353 | -106.75669 | 33939 ft | 459 kts | 315° |
| 2026-04-19 21:41 | 22.77575 | -106.79643 | 33942 ft | 459 kts | 315° |
| 2026-04-19 21:42 | 22.82797 | -106.83619 | 33938 ft | 459 kts | 315° |
| 2026-04-19 21:42 | 22.88015 | -106.87598 | 33942 ft | 458 kts | 315° |
| 2026-04-19 21:43 | 22.93231 | -106.91577 | 33939 ft | 458 kts | 315° |
| 2026-04-19 21:43 | 22.98444 | -106.95558 | 33940 ft | 458 kts | 315° |
| 2026-04-19 21:44 | 23.03657 | -106.99543 | 33939 ft | 458 kts | 315° |
| 2026-04-19 21:44 | 23.08873 | -107.03534 | 33938 ft | 458 kts | 315° |
| 2026-04-19 21:45 | 23.14085 | -107.07525 | 33944 ft | 458 kts | 315° |
| 2026-04-19 21:45 | 23.19294 | -107.11519 | 33939 ft | 458 kts | 315° |
| 2026-04-19 21:46 | 23.24508 | -107.15519 | 33936 ft | 458 kts | 315° |
| 2026-04-19 21:46 | 23.29681 | -107.19493 | 33939 ft | 458 kts | 315° |
| 2026-04-19 21:47 | 23.34888 | -107.23495 | 33941 ft | 458 kts | 315° |
| 2026-04-19 21:47 | 23.40098 | -107.27504 | 33939 ft | 458 kts | 315° |
| 2026-04-19 21:48 | 23.45302 | -107.31513 | 33940 ft | 458 kts | 314° |
| 2026-04-19 21:48 | 23.50511 | -107.35529 | 33947 ft | 459 kts | 314° |
| 2026-04-19 21:49 | 23.55720 | -107.39549 | 33943 ft | 459 kts | 314° |
| 2026-04-19 21:49 | 23.60926 | -107.43570 | 33940 ft | 459 kts | 314° |
| 2026-04-19 21:50 | 23.66138 | -107.47602 | 33940 ft | 459 kts | 314° |
| 2026-04-19 21:50 | 23.71350 | -107.51636 | 33940 ft | 459 kts | 314° |
| 2026-04-19 21:51 | 23.76562 | -107.55674 | 33942 ft | 460 kts | 314° |
| 2026-04-19 21:51 | 23.81779 | -107.59721 | 33942 ft | 460 kts | 314° |
| 2026-04-19 21:52 | 23.86994 | -107.63769 | 33937 ft | 460 kts | 314° |
| 2026-04-19 21:52 | 23.92211 | -107.67825 | 33937 ft | 460 kts | 314° |
| 2026-04-19 21:53 | 23.97429 | -107.71884 | 33938 ft | 460 kts | 314° |
| 2026-04-19 21:53 | 24.02649 | -107.75949 | 33940 ft | 461 kts | 314° |
| 2026-04-19 21:54 | 24.07870 | -107.80019 | 33940 ft | 461 kts | 314° |
| 2026-04-19 21:54 | 24.13094 | -107.84096 | 33940 ft | 461 kts | 314° |
| 2026-04-19 21:55 | 24.18313 | -107.88173 | 33941 ft | 461 kts | 314° |
| 2026-04-19 21:55 | 24.23536 | -107.92257 | 33936 ft | 461 kts | 314° |
| 2026-04-19 21:56 | 24.28758 | -107.96344 | 33943 ft | 461 kts | 314° |
| 2026-04-19 21:56 | 24.33981 | -108.00437 | 33936 ft | 461 kts | 314° |
| 2026-04-19 21:57 | 24.39169 | -108.04507 | 33923 ft | 461 kts | 314° |
| 2026-04-19 21:57 | 24.40047 | -108.05197 | 33936 ft | 461 kts | 314° |